Time;durP1;ratioP1;P1;durP2;ratioP2;P2;SDS_P1;SDS_P2;PMS_P1;PMS_P2;Temp;Humidity;BMP_temperature;BMP_pressure;BME280_temperature;BME280_humidity;BME280_pressure;Samples;Min_cycle;Max_cycle;Signal;HPM_P1;HPM_P2
2023/08/03 00:00:14;;;;;;;0.50;0.20;;;18.20;1.00;;;;;;5055637;28;20876;-60
2023/08/03 00:02:41;;;;;;;0.88;0.30;;;18.10;56.20;;;;;;5054906;28;20739;-60
2023/08/03 00:05:09;;;;;;;1.10;0.30;;;18.20;1.00;;;;;;5054915;28;20504;-61
2023/08/03 00:07:37;;;;;;;0.90;0.38;;;18.10;99.90;;;;;;5053088;28;20849;-60
2023/08/03 00:10:04;;;;;;;2.03;0.30;;;18.10;99.90;;;;;;5054295;28;20453;-60
2023/08/03 00:12:31;;;;;;;0.90;0.30;;;18.00;99.90;;;;;;5054258;28;20520;-60
2023/08/03 00:14:58;;;;;;;1.42;0.40;;;18.10;99.90;;;;;;5055056;28;20611;-61
2023/08/03 00:17:25;;;;;;;1.13;0.40;;;18.20;99.90;;;;;;5053519;28;20440;-60
2023/08/03 00:19:52;;;;;;;2.63;0.60;;;18.20;99.90;;;;;;5053391;28;20496;-61
2023/08/03 00:22:18;;;;;;;0.90;0.30;;;18.20;99.90;;;;;;5052364;28;20504;-60
2023/08/03 00:24:47;;;;;;;0.50;0.30;;;18.30;99.90;;;;;;5052821;28;20523;-61
2023/08/03 00:27:13;;;;;;;1.50;0.40;;;18.30;99.90;;;;;;5053776;28;20498;-60
2023/08/03 00:29:40;;;;;;;0.80;0.30;;;18.40;99.90;;;;;;5054231;28;20795;-60
2023/08/03 00:32:08;;;;;;;1.08;0.30;;;18.40;99.90;;;;;;5054459;28;20523;-61
2023/08/03 00:34:34;;;;;;;2.40;0.40;;;18.50;99.90;;;;;;5054631;28;20739;-61
2023/08/03 00:37:01;;;;;;;1.40;0.30;;;18.50;99.90;;;;;;5055676;28;20455;-60
2023/08/03 00:39:28;;;;;;;3.70;0.50;;;18.40;99.90;;;;;;5054802;28;20452;-63
2023/08/03 00:41:57;;;;;;;1.38;0.30;;;18.40;99.90;;;;;;5054802;28;20511;-61
2023/08/03 00:44:23;;;;;;;1.30;0.40;;;18.30;99.90;;;;;;5053836;28;20520;-61
2023/08/03 00:46:50;;;;;;;1.20;0.30;;;18.30;99.90;;;;;;5053812;28;20471;-60
2023/08/03 00:49:17;;;;;;;1.20;0.30;;;18.30;1.00;;;;;;5054536;28;20500;-60
2023/08/03 00:51:44;;;;;;;1.00;0.30;;;18.40;99.90;;;;;;5054921;28;20456;-59
2023/08/03 00:54:11;;;;;;;0.80;0.40;;;18.40;99.90;;;;;;5054624;28;20504;-60
2023/08/03 00:56:38;;;;;;;2.70;0.32;;;18.50;99.90;;;;;;5054600;28;20536;-61
2023/08/03 00:59:07;;;;;;;1.42;0.40;;;18.50;99.90;;;;;;5054000;28;20433;-60
2023/08/03 01:01:34;;;;;;;1.00;0.30;;;18.50;99.90;;;;;;5054167;28;20414;-59
2023/08/03 01:04:01;;;;;;;1.40;0.30;;;18.50;99.90;;;;;;5053450;28;20479;-61
2023/08/03 01:06:28;;;;;;;1.50;0.30;;;18.40;99.90;;;;;;5054459;28;20508;-60
2023/08/03 01:08:57;;;;;;;1.55;0.35;;;18.60;1.00;;;;;;5058691;28;20432;-60
2023/08/03 01:11:24;;;;;;;0.60;0.30;;;18.50;99.90;;;;;;5059446;28;20431;-61
2023/08/03 01:13:51;;;;;;;2.63;0.30;;;18.40;99.90;;;;;;5060167;28;20717;-60
2023/08/03 01:16:20;;;;;;;1.10;0.30;;;18.60;1.00;;;;;;5059701;28;20524;-60
2023/08/03 01:18:46;;;;;;;1.60;0.40;;;18.50;99.90;;;;;;5060478;28;20520;-60
2023/08/03 01:21:17;;;;;;;1.60;0.30;;;18.60;99.90;;;;;;5059373;28;20512;-61
2023/08/03 01:23:45;;;;;;;1.20;0.30;;;18.60;99.90;;;;;;5060443;28;20524;-60
2023/08/03 01:26:12;;;;;;;1.42;0.40;;;18.70;99.90;;;;;;5059908;28;20427;-61
2023/08/03 01:28:39;;;;;;;1.50;0.30;;;18.70;99.90;;;;;;5059026;28;20792;-60
2023/08/03 01:31:06;;;;;;;1.30;0.30;;;18.70;99.90;;;;;;5060038;28;20895;-60
2023/08/03 01:33:33;;;;;;;1.00;0.40;;;18.80;99.90;;;;;;5059564;28;20425;-60
2023/08/03 01:36:00;;;;;;;1.55;0.40;;;18.80;99.90;;;;;;5060010;28;20927;-60
2023/08/03 01:38:28;;;;;;;1.58;0.30;;;18.80;99.90;;;;;;5060720;28;20427;-61
2023/08/03 01:40:56;;;;;;;0.90;0.40;;;18.80;99.90;;;;;;5060616;28;20463;-61
2023/08/03 01:43:24;;;;;;;1.60;0.30;;;18.80;99.90;;;;;;5060430;28;20499;-60
2023/08/03 01:45:51;;;;;;;0.90;0.30;;;18.80;99.90;;;;;;5061127;28;20701;-60
2023/08/03 01:48:18;;;;;;;0.80;0.30;;;18.80;99.90;;;;;;5059901;28;20527;-61
2023/08/03 01:50:44;;;;;;;1.25;0.30;;;18.70;99.90;;;;;;5060471;28;20515;-61
2023/08/03 01:53:16;;;;;;;1.30;0.30;;;18.80;99.90;;;;;;5059482;28;21545;-60
2023/08/03 01:55:45;;;;;;;0.85;0.30;;;18.80;99.90;;;;;;5059597;28;20421;-61
2023/08/03 01:58:13;;;;;;;1.60;0.30;;;18.70;99.90;;;;;;5059867;28;20436;-60
2023/08/03 02:00:40;;;;;;;1.20;0.30;;;18.70;99.90;;;;;;5059671;28;20460;-59
2023/08/03 02:03:07;;;;;;;2.00;0.30;;;18.60;99.90;;;;;;5059731;28;20445;-60
2023/08/03 02:05:34;;;;;;;1.40;0.30;;;18.60;99.90;;;;;;5059915;28;20641;-61
2023/08/03 02:08:01;;;;;;;1.30;0.30;;;18.60;99.90;;;;;;5059602;28;20528;-60
2023/08/03 02:10:28;;;;;;;1.10;0.20;;;18.60;99.90;;;;;;5059748;28;20496;-59
2023/08/03 02:12:54;;;;;;;1.10;0.30;;;18.60;99.90;;;;;;5058596;28;20419;-60
2023/08/03 02:15:23;;;;;;;1.20;0.30;;;18.50;99.90;;;;;;5060115;28;20527;-59
2023/08/03 02:17:50;;;;;;;1.08;0.30;;;18.50;99.90;;;;;;5059201;28;20520;-61
2023/08/03 02:20:16;;;;;;;1.20;0.30;;;18.60;99.90;;;;;;5055792;28;20425;-60
2023/08/03 02:22:43;;;;;;;1.17;0.30;;;18.50;99.90;;;;;;5056031;28;20424;-61
2023/08/03 02:25:10;;;;;;;0.80;0.20;;;18.50;99.90;;;;;;5056449;28;20917;-62
2023/08/03 02:27:37;;;;;;;1.23;0.30;;;18.40;99.90;;;;;;5056738;28;20425;-59
2023/08/03 02:30:04;;;;;;;1.52;0.30;;;18.50;99.90;;;;;;5056903;28;21001;-61
2023/08/03 02:32:32;;;;;;;0.90;0.30;;;18.60;99.90;;;;;;5056721;28;20524;-61
2023/08/03 02:34:59;;;;;;;0.70;0.30;;;18.50;99.90;;;;;;5056485;28;20417;-60
2023/08/03 02:37:26;;;;;;;1.00;0.30;;;18.50;99.90;;;;;;5056737;28;20524;-60
2023/08/03 02:39:53;;;;;;;0.90;0.20;;;18.50;99.90;;;;;;5056388;28;20503;-61
2023/08/03 02:42:20;;;;;;;0.90;0.30;;;18.50;99.90;;;;;;5056184;28;20528;-59
2023/08/03 02:44:47;;;;;;;1.00;0.30;;;18.40;99.90;;;;;;5055693;28;20563;-60
2023/08/03 02:47:13;;;;;;;2.00;0.30;;;18.40;99.90;;;;;;5055193;28;20515;-61
2023/08/03 02:49:41;;;;;;;2.70;0.30;;;18.30;99.90;;;;;;5055736;28;20536;-60
2023/08/03 02:52:08;;;;;;;2.20;0.30;;;18.40;99.90;;;;;;5054665;28;20718;-60
2023/08/03 02:54:35;;;;;;;0.88;0.30;;;18.40;99.90;;;;;;5054949;28;20437;-61
2023/08/03 02:57:02;;;;;;;0.80;0.30;;;18.40;99.90;;;;;;5054392;28;20433;-60
2023/08/03 02:59:29;;;;;;;0.60;0.30;;;18.40;99.90;;;;;;5053922;28;20806;-60
2023/08/03 03:01:56;;;;;;;0.95;0.25;;;18.30;99.90;;;;;;5052563;28;20463;-60
2023/08/03 03:04:22;;;;;;;0.90;0.40;;;18.20;99.90;;;;;;5035366;28;20595;-60
2023/08/03 03:06:51;;;;;;;1.10;0.30;;;18.10;99.90;;;;;;5035920;28;20775;-61
2023/08/03 03:09:17;;;;;;;1.30;0.30;;;18.20;99.90;;;;;;5035209;28;20929;-60
2023/08/03 03:11:44;;;;;;;2.10;0.30;;;18.20;99.90;;;;;;5034940;28;20466;-61
2023/08/03 03:14:11;;;;;;;1.60;0.30;;;18.20;99.90;;;;;;5035182;28;20526;-59
2023/08/03 03:16:38;;;;;;;2.00;0.40;;;18.20;99.90;;;;;;5035309;28;20931;-61
2023/08/03 03:19:05;;;;;;;1.47;0.27;;;18.10;99.90;;;;;;5035684;28;20529;-60
2023/08/03 03:21:31;;;;;;;1.80;0.30;;;18.20;99.90;;;;;;5034364;28;20813;-60
2023/08/03 03:24:00;;;;;;;1.90;0.30;;;18.10;99.90;;;;;;5034603;28;20505;-59
2023/08/03 03:26:26;;;;;;;1.85;0.40;;;18.00;99.90;;;;;;5034139;28;20433;-60
2023/08/03 03:28:53;;;;;;;1.52;0.40;;;17.90;99.90;;;;;;5034686;28;20458;-59
2023/08/03 03:31:20;;;;;;;1.27;0.30;;;18.00;99.90;;;;;;5033637;28;20894;-61
2023/08/03 03:33:47;;;;;;;1.40;0.40;;;18.00;99.90;;;;;;5035913;28;20525;-61
2023/08/03 03:36:14;;;;;;;1.50;0.50;;;18.10;99.90;;;;;;5035456;28;20525;-61
2023/08/03 03:38:41;;;;;;;0.70;0.30;;;18.00;99.90;;;;;;5035858;28;20442;-63
2023/08/03 03:41:09;;;;;;;2.80;0.40;;;18.00;99.90;;;;;;5035613;28;20515;-60
2023/08/03 03:43:36;;;;;;;0.70;0.30;;;17.90;99.90;;;;;;5035130;28;20504;-59
2023/08/03 03:46:03;;;;;;;1.05;0.20;;;18.00;99.90;;;;;;5034954;28;20426;-60
2023/08/03 03:48:29;;;;;;;1.00;0.30;;;18.00;99.90;;;;;;5035541;28;20434;-59
2023/08/03 03:50:56;;;;;;;1.85;0.30;;;18.10;99.90;;;;;;5035468;28;20910;-59
2023/08/03 03:53:23;;;;;;;1.90;0.30;;;18.10;99.90;;;;;;5034984;28;20424;-59
2023/08/03 03:55:50;;;;;;;2.10;0.30;;;18.10;99.90;;;;;;5035456;28;20505;-59
2023/08/03 03:58:18;;;;;;;1.70;0.30;;;17.90;99.90;;;;;;5035602;28;20435;-59
2023/08/03 04:00:45;;;;;;;0.90;0.30;;;17.80;99.90;;;;;;5035232;28;20445;-60
2023/08/03 04:03:12;;;;;;;2.55;0.30;;;17.90;99.90;;;;;;5034476;28;20505;-60
2023/08/03 04:05:39;;;;;;;1.60;0.50;;;18.00;99.90;;;;;;5033769;28;20794;-59
2023/08/03 04:08:06;;;;;;;1.08;0.30;;;17.90;99.90;;;;;;5033923;28;20521;-59
2023/08/03 04:10:35;;;;;;;1.80;0.30;;;17.90;99.90;;;;;;5032396;28;20419;-59
2023/08/03 04:13:02;;;;;;;0.90;0.20;;;17.80;99.90;;;;;;5032603;28;20423;-59
2023/08/03 04:15:30;;;;;;;0.60;0.20;;;17.80;99.90;;;;;;5033546;28;21129;-59
2023/08/03 04:17:57;;;;;;;0.50;0.20;;;17.80;99.90;;;;;;5030359;28;20525;-59
2023/08/03 04:20:24;;;;;;;0.60;0.30;;;17.70;99.90;;;;;;5030986;28;20549;-59
2023/08/03 04:22:50;;;;;;;0.80;0.30;;;17.90;99.90;;;;;;5030947;28;20510;-59
2023/08/03 04:25:17;;;;;;;2.20;0.30;;;17.90;99.90;;;;;;5031043;28;20503;-58
2023/08/03 04:27:44;;;;;;;1.65;0.30;;;17.90;99.90;;;;;;5030638;28;20426;-60
2023/08/03 04:30:13;;;;;;;0.70;0.20;;;17.80;99.90;;;;;;5033017;28;20521;-59
2023/08/03 04:32:41;;;;;;;0.70;0.20;;;17.70;99.90;;;;;;5033397;28;20895;-60
2023/08/03 04:35:10;;;;;;;0.60;0.25;;;17.70;99.90;;;;;;5033793;28;20484;-58
2023/08/03 04:37:37;;;;;;;0.60;0.20;;;17.70;99.90;;;;;;5034428;28;20485;-60
2023/08/03 04:40:04;;;;;;;1.10;0.20;;;17.80;99.90;;;;;;5034927;28;20526;-59
2023/08/03 04:42:31;;;;;;;0.60;0.30;;;17.90;99.90;;;;;;5034437;28;20694;-60
2023/08/03 04:44:58;;;;;;;0.63;0.20;;;17.80;99.90;;;;;;5035168;28;20527;-58
2023/08/03 04:47:25;;;;;;;0.98;0.22;;;17.90;99.90;;;;;;5033890;28;20534;-59
2023/08/03 04:49:53;;;;;;;2.10;0.20;;;17.90;99.90;;;;;;5033462;28;20451;-59
2023/08/03 04:52:21;;;;;;;1.00;0.20;;;17.90;99.90;;;;;;5033069;28;20481;-59
2023/08/03 04:54:48;;;;;;;0.70;0.20;;;17.90;99.90;;;;;;5033752;28;20423;-60
2023/08/03 04:57:15;;;;;;;0.70;0.20;;;17.90;99.90;;;;;;5034423;28;20533;-59
2023/08/03 04:59:42;;;;;;;0.93;0.20;;;17.80;99.90;;;;;;5033159;28;20426;-59
2023/08/03 05:02:09;;;;;;;0.43;0.20;;;17.90;99.90;;;;;;5033588;28;20604;-59
2023/08/03 05:04:36;;;;;;;2.13;0.20;;;17.80;99.90;;;;;;5033538;28;20494;-60
2023/08/03 05:07:04;;;;;;;0.50;0.20;;;17.90;99.90;;;;;;5031886;28;20563;-60
2023/08/03 05:09:31;;;;;;;0.65;0.30;;;17.90;99.90;;;;;;5032199;28;20521;-60
2023/08/03 05:11:58;;;;;;;1.02;0.30;;;17.80;99.90;;;;;;5033147;28;20517;-60
2023/08/03 05:14:25;;;;;;;0.50;0.20;;;17.90;99.90;;;;;;5033088;28;20802;-60
2023/08/03 05:16:52;;;;;;;1.90;0.20;;;17.80;99.90;;;;;;5032446;28;20650;-60
2023/08/03 05:19:18;;;;;;;0.85;0.20;;;17.90;99.90;;;;;;5033322;28;20509;-59
2023/08/03 05:21:46;;;;;;;1.00;0.30;;;17.90;99.90;;;;;;5032924;28;20494;-59
2023/08/03 05:24:14;;;;;;;1.40;0.20;;;18.00;99.90;;;;;;5032688;28;20470;-59
2023/08/03 05:26:41;;;;;;;1.30;0.20;;;18.00;99.90;;;;;;5033062;28;20526;-59
2023/08/03 05:29:10;;;;;;;0.52;0.20;;;18.10;99.90;;;;;;5033359;28;20742;-59
2023/08/03 05:31:36;;;;;;;0.52;0.20;;;18.20;99.90;;;;;;5032639;28;20505;-59
2023/08/03 05:34:03;;;;;;;0.40;0.20;;;18.20;99.90;;;;;;5033107;28;20910;-59
2023/08/03 05:36:30;;;;;;;1.40;0.20;;;18.10;99.90;;;;;;5031662;28;20521;-60
2023/08/03 05:38:57;;;;;;;0.93;0.20;;;18.10;99.90;;;;;;5031577;28;20533;-59
2023/08/03 05:41:27;;;;;;;0.40;0.10;;;18.00;99.90;;;;;;5032679;28;20529;-59
2023/08/03 05:43:54;;;;;;;0.80;0.22;;;18.00;99.90;;;;;;5032074;28;20829;-60
2023/08/03 05:46:21;;;;;;;0.90;0.20;;;18.10;99.90;;;;;;5032198;28;20485;-59
2023/08/03 05:48:51;;;;;;;0.50;0.20;;;18.10;99.90;;;;;;5032689;28;20719;-59
2023/08/03 05:51:25;;;;;;;1.10;0.20;;;18.10;99.90;;;;;;5032835;28;20712;-60
2023/08/03 05:53:52;;;;;;;0.50;0.20;;;18.20;99.90;;;;;;5034680;28;20426;-60
2023/08/03 05:56:20;;;;;;;0.90;0.20;;;18.20;99.90;;;;;;5035880;28;20840;-60
2023/08/03 05:58:49;;;;;;;2.08;0.30;;;18.30;99.90;;;;;;5034126;28;20427;-59
2023/08/03 06:01:19;;;;;;;0.70;0.30;;;18.30;99.90;;;;;;5033736;28;20513;-60
2023/08/03 06:03:47;;;;;;;0.70;0.20;;;18.30;99.90;;;;;;5032365;28;20492;-59
2023/08/03 06:06:18;;;;;;;0.70;0.40;;;18.40;99.90;;;;;;5032384;28;20561;-60
2023/08/03 06:08:48;;;;;;;0.40;0.20;;;18.50;99.90;;;;;;5032283;28;20418;-59
2023/08/03 06:11:17;;;;;;;0.70;0.20;;;18.50;99.90;;;;;;5031354;28;20441;-60
2023/08/03 06:13:45;;;;;;;0.50;0.20;;;18.40;99.90;;;;;;5031404;28;20419;-59
2023/08/03 06:16:14;;;;;;;1.10;0.20;;;18.40;99.90;;;;;;5032555;28;20415;-60
2023/08/03 06:18:48;;;;;;;1.63;0.30;;;18.30;99.90;;;;;;5033758;28;20735;-58
2023/08/03 06:21:16;;;;;;;0.50;0.20;;;18.20;99.90;;;;;;5051828;28;20515;-60
2023/08/03 06:23:46;;;;;;;0.63;0.20;;;18.30;99.90;;;;;;5050828;28;20736;-60
2023/08/03 06:26:14;;;;;;;0.50;0.23;;;18.40;99.90;;;;;;5047311;28;20436;-60
2023/08/03 06:28:41;;;;;;;0.63;0.20;;;18.40;99.90;;;;;;5053910;28;20417;-59
2023/08/03 06:31:15;;;;;;;0.65;0.30;;;18.40;99.90;;;;;;5054215;28;20444;-58
2023/08/03 06:33:43;;;;;;;0.50;0.20;;;18.50;99.90;;;;;;5052370;28;20457;-59
2023/08/03 06:36:17;;;;;;;0.90;0.20;;;18.60;99.90;;;;;;5052588;28;20436;-59
2023/08/03 06:38:44;;;;;;;0.87;0.20;;;18.70;99.90;;;;;;5054129;28;20541;-60
2023/08/03 06:41:11;;;;;;;0.50;0.20;;;18.80;99.90;;;;;;5054359;28;20528;-60
2023/08/03 06:43:41;;;;;;;0.40;0.20;;;18.90;99.90;;;;;;5053327;28;20496;-59
2023/08/03 06:46:08;;;;;;;0.90;0.20;;;19.00;99.90;;;;;;5053807;28;20417;-59
2023/08/03 06:48:36;;;;;;;1.60;0.40;;;19.20;99.90;;;;;;5051027;28;20531;-60
2023/08/03 06:51:04;;;;;;;0.50;0.20;;;19.30;99.90;;;;;;5053669;28;20564;-58
2023/08/03 06:53:32;;;;;;;0.50;0.20;;;19.40;99.90;;;;;;5051205;28;20536;-58
2023/08/03 06:55:59;;;;;;;4.20;1.20;;;19.30;99.90;;;;;;5049802;28;20553;-58
2023/08/03 06:58:26;;;;;;;1.00;0.30;;;19.50;99.90;;;;;;5050716;28;20675;-58
2023/08/03 07:00:53;;;;;;;0.95;0.30;;;19.60;99.90;;;;;;5050115;28;20447;-59
2023/08/03 07:03:21;;;;;;;0.60;0.20;;;19.50;99.90;;;;;;5014580;28;20475;-58
2023/08/03 07:05:49;;;;;;;0.60;0.20;;;19.60;99.90;;;;;;5012435;28;20833;-58
2023/08/03 07:08:16;;;;;;;0.80;0.20;;;19.60;99.90;;;;;;5011558;28;20499;-60
2023/08/03 07:10:43;;;;;;;0.60;0.20;;;19.50;99.90;;;;;;5012271;28;20421;-60
2023/08/03 07:13:09;;;;;;;2.67;0.20;;;19.60;99.90;;;;;;5013325;28;20853;-61
2023/08/03 07:15:37;;;;;;;0.40;0.20;;;19.60;99.90;;;;;;5012599;28;20870;-61
2023/08/03 07:18:04;;;;;;;2.00;0.20;;;19.60;99.90;;;;;;5014102;28;20526;-62
2023/08/03 07:20:32;;;;;;;0.60;0.20;;;19.50;99.90;;;;;;5013087;28;20467;-61
2023/08/03 07:23:00;;;;;;;0.50;0.20;;;19.60;99.90;;;;;;5012219;28;20722;-61
2023/08/03 07:25:27;;;;;;;0.70;0.20;;;19.60;99.90;;;;;;5012560;28;20412;-62
2023/08/03 07:27:57;;;;;;;1.20;0.20;;;19.70;99.90;;;;;;5012529;28;20535;-63
2023/08/03 07:30:24;;;;;;;0.40;0.20;;;19.70;99.90;;;;;;5011531;28;20867;-62
2023/08/03 07:32:51;;;;;;;0.50;0.20;;;19.80;99.90;;;;;;5011704;28;20615;-62
2023/08/03 07:35:18;;;;;;;0.70;0.20;;;19.80;99.90;;;;;;5011773;28;20428;-61
2023/08/03 07:37:45;;;;;;;0.38;0.10;;;19.90;99.90;;;;;;5014105;28;20429;-62
2023/08/03 07:40:13;;;;;;;1.00;0.20;;;19.90;99.90;;;;;;5013725;28;20417;-62
2023/08/03 07:42:43;;;;;;;0.50;0.20;;;19.90;99.90;;;;;;5013614;28;20921;-61
2023/08/03 07:45:11;;;;;;;0.93;0.20;;;20.00;99.90;;;;;;5013760;28;20511;-61
2023/08/03 07:47:37;;;;;;;0.45;0.15;;;20.10;99.90;;;;;;5011442;28;20435;-61
2023/08/03 07:50:05;;;;;;;0.32;0.13;;;20.00;99.90;;;;;;5012041;28;20535;-61
2023/08/03 07:52:32;;;;;;;0.60;0.20;;;20.00;99.90;;;;;;5012462;28;20421;-62
2023/08/03 07:54:59;;;;;;;0.85;0.10;;;20.10;99.90;;;;;;5013485;28;20511;-62
2023/08/03 07:57:27;;;;;;;1.50;0.20;;;20.30;99.90;;;;;;5018419;28;20537;-60
2023/08/03 07:59:54;;;;;;;0.40;0.20;;;20.30;99.90;;;;;;5025870;28;20739;-61
2023/08/03 08:02:21;;;;;;;0.80;0.20;;;20.40;99.90;;;;;;5031994;28;20490;-60
2023/08/03 08:04:51;;;;;;;0.80;0.20;;;20.50;99.90;;;;;;5030504;28;20502;-60
2023/08/03 08:07:19;;;;;;;0.90;0.13;;;20.50;99.90;;;;;;5031618;28;20471;-59
2023/08/03 08:09:46;;;;;;;0.40;0.20;;;20.60;99.90;;;;;;5032345;28;20423;-58
2023/08/03 08:12:13;;;;;;;0.90;0.20;;;20.80;99.90;;;;;;5033209;28;20522;-60
2023/08/03 08:14:41;;;;;;;0.50;0.20;;;21.10;99.90;;;;;;5032222;28;20493;-58
2023/08/03 08:17:08;;;;;;;1.50;0.20;;;20.90;99.90;;;;;;5031080;28;20466;-58
2023/08/03 08:19:35;;;;;;;0.40;0.20;;;20.80;99.90;;;;;;5031579;28;20426;-59
2023/08/03 08:22:02;;;;;;;1.38;0.20;;;21.00;99.90;;;;;;5031054;28;20423;-60
2023/08/03 08:24:29;;;;;;;0.50;0.20;;;21.30;99.90;;;;;;5030568;28;20531;-61
2023/08/03 08:26:56;;;;;;;0.60;0.20;;;21.60;99.90;;;;;;5030134;28;20533;-60
2023/08/03 08:29:24;;;;;;;0.30;0.10;;;21.70;99.90;;;;;;5030324;28;21066;-60
2023/08/03 08:31:52;;;;;;;0.60;0.20;;;21.70;99.90;;;;;;5031286;28;20453;-60
2023/08/03 08:34:19;;;;;;;0.40;0.10;;;21.60;99.90;;;;;;5031857;28;20574;-58
2023/08/03 08:36:46;;;;;;;0.50;0.20;;;21.60;99.90;;;;;;5032058;28;20927;-58
2023/08/03 08:39:12;;;;;;;0.40;0.13;;;21.60;99.90;;;;;;5032922;28;20531;-58
2023/08/03 08:41:41;;;;;;;0.60;0.20;;;21.40;99.90;;;;;;5032165;28;20517;-58
2023/08/03 08:44:07;;;;;;;0.50;0.15;;;21.60;99.90;;;;;;5038702;28;20877;-58
2023/08/03 08:46:37;;;;;;;5.05;3.50;;;21.60;99.90;;;;;;5052478;28;20781;-57
2023/08/03 08:49:05;;;;;;;0.65;0.20;;;21.70;99.90;;;;;;5049231;28;20436;-58
2023/08/03 08:51:34;;;;;;;0.77;0.20;;;21.90;99.90;;;;;;5051276;28;20516;-59
2023/08/03 08:54:01;;;;;;;1.48;0.20;;;22.00;99.90;;;;;;5036756;28;20540;-58
2023/08/03 08:56:27;;;;;;;0.70;0.10;;;22.00;99.90;;;;;;5050593;28;20536;-57
2023/08/03 08:58:54;;;;;;;0.90;0.20;;;21.90;99.90;;;;;;5050521;28;20509;-57
2023/08/03 09:01:21;;;;;;;0.40;0.20;;;22.00;99.90;;;;;;5050205;28;20505;-57
2023/08/03 09:03:51;;;;;;;0.60;0.10;;;22.10;99.90;;;;;;5019024;28;20527;-58
2023/08/03 09:06:20;;;;;;;0.50;0.10;;;22.00;99.90;;;;;;5022925;28;20435;-57
2023/08/03 09:08:53;;;;;;;0.50;0.20;;;22.20;99.90;;;;;;5031397;28;20452;-58
2023/08/03 09:11:36;;;;;;;0.50;0.20;;;22.30;99.90;;;;;;5032039;28;20426;-58
2023/08/03 09:14:07;;;;;;;0.40;0.17;;;22.30;99.90;;;;;;5045021;28;20525;-58
2023/08/03 09:16:37;;;;;;;1.70;0.20;;;22.20;99.90;;;;;;5026511;28;21123;-58
2023/08/03 09:19:05;;;;;;;0.70;0.20;;;22.30;99.90;;;;;;5029407;28;20442;-59
2023/08/03 09:21:33;;;;;;;0.60;0.20;;;22.50;99.90;;;;;;5040843;28;20589;-59
2023/08/03 09:24:16;;;;;;;0.40;0.20;;;22.50;99.90;;;;;;5037780;28;20519;-58
2023/08/03 09:26:43;;;;;;;0.47;0.20;;;22.40;99.90;;;;;;5039346;28;20501;-58
2023/08/03 09:29:13;;;;;;;0.80;0.17;;;22.20;99.90;;;;;;5044855;28;20780;-58
2023/08/03 09:31:40;;;;;;;0.70;0.10;;;22.20;99.90;;;;;;5052852;28;20843;-58
2023/08/03 09:34:07;;;;;;;0.50;0.10;;;22.30;99.90;;;;;;5034204;28;20415;-58
2023/08/03 09:36:35;;;;;;;0.40;0.10;;;22.50;99.90;;;;;;5033305;28;20517;-58
2023/08/03 09:39:12;;;;;;;0.40;0.20;;;22.30;99.90;;;;;;5032498;28;20574;-58
2023/08/03 09:41:39;;;;;;;0.80;0.10;;;22.40;99.90;;;;;;5033788;28;20828;-58
2023/08/03 09:44:07;;;;;;;2.30;0.20;;;22.60;99.90;;;;;;5029099;28;20533;-58
2023/08/03 09:46:35;;;;;;;0.60;0.25;;;22.60;99.90;;;;;;5031179;28;20422;-59
2023/08/03 09:49:02;;;;;;;1.27;0.68;;;22.70;99.90;;;;;;5034754;28;20477;-59
2023/08/03 09:51:30;;;;;;;0.70;0.30;;;22.60;99.90;;;;;;5033354;28;20427;-59
2023/08/03 09:54:05;;;;;;;1.00;0.30;;;22.60;99.90;;;;;;5032543;28;20783;-59
2023/08/03 09:56:36;;;;;;;0.90;0.40;;;22.70;99.90;;;;;;5034450;28;20497;-59
2023/08/03 09:59:06;;;;;;;1.15;0.15;;;22.60;99.90;;;;;;5033144;28;20437;-59
2023/08/03 10:01:38;;;;;;;0.70;0.20;;;22.50;99.90;;;;;;5050848;28;20671;-60
2023/08/03 10:04:11;;;;;;;0.53;0.30;;;22.90;99.90;;;;;;5046803;28;20442;-59
2023/08/03 10:06:41;;;;;;;0.80;0.20;;;23.20;99.90;;;;;;5055573;28;20528;-60
2023/08/03 10:09:14;;;;;;;0.43;0.10;;;23.00;99.90;;;;;;5064081;28;20435;-60
2023/08/03 10:11:46;;;;;;;0.50;0.20;;;22.80;99.90;;;;;;5063524;28;20828;-60
2023/08/03 10:14:17;;;;;;;0.50;0.10;;;22.70;99.90;;;;;;5054967;28;20437;-60
2023/08/03 10:16:44;;;;;;;0.70;0.20;;;22.60;99.90;;;;;;5050807;28;20476;-60
2023/08/03 10:19:12;;;;;;;0.40;0.10;;;22.80;99.90;;;;;;5042035;28;20500;-61
2023/08/03 10:21:42;;;;;;;0.85;0.17;;;22.70;99.90;;;;;;5044274;28;20419;-59
2023/08/03 10:24:12;;;;;;;1.60;0.20;;;22.80;99.90;;;;;;5032917;28;20533;-59
2023/08/03 10:26:42;;;;;;;0.50;0.20;;;22.50;99.90;;;;;;5032196;28;20991;-59
2023/08/03 10:29:09;;;;;;;1.23;0.20;;;22.60;99.90;;;;;;5044237;28;20453;-59
2023/08/03 10:31:53;;;;;;;0.70;0.20;;;22.40;99.90;;;;;;5049763;28;20445;-61
2023/08/03 10:34:27;;;;;;;0.30;0.10;;;22.40;99.90;;;;;;5053489;28;20782;-63
2023/08/03 10:36:55;;;;;;;0.50;0.15;;;22.70;99.90;;;;;;5050726;28;20502;-64
2023/08/03 10:39:53;;;;;;;0.38;0.10;;;22.80;99.90;;;;;;5052347;28;20433;-64
2023/08/03 10:42:22;;;;;;;0.95;0.10;;;22.80;99.90;;;;;;5055659;28;20463;-65
2023/08/03 10:44:49;;;;;;;0.30;0.10;;;22.70;99.90;;;;;;5057162;28;20526;-64
2023/08/03 10:47:30;;;;;;;0.80;0.20;;;22.80;99.90;;;;;;5063668;28;20655;-59
2023/08/03 10:50:01;;;;;;;0.43;0.13;;;22.80;99.90;;;;;;5055207;28;20470;-59
2023/08/03 10:52:32;;;;;;;2.30;0.20;;;22.80;99.90;;;;;;5062343;28;20468;-59
2023/08/03 10:55:21;;;;;;;0.40;0.10;;;22.70;99.90;;;;;;5047388;28;20474;-59
2023/08/03 10:57:48;;;;;;;0.40;0.10;;;22.50;99.90;;;;;;5058614;28;20516;-58
2023/08/03 11:00:17;;;;;;;0.70;0.40;;;22.30;99.90;;;;;;5046823;28;20594;-59
2023/08/03 11:02:44;;;;;;;1.30;0.70;;;22.30;99.90;;;;;;5062494;28;20439;-57
2023/08/03 11:05:12;;;;;;;0.60;0.20;;;22.50;99.90;;;;;;5063800;28;20942;-58
2023/08/03 11:07:41;;;;;;;0.88;0.20;;;22.90;99.90;;;;;;5062178;28;20707;-58
2023/08/03 11:10:12;;;;;;;0.40;0.20;;;23.30;99.90;;;;;;5067462;28;20504;-58
2023/08/03 11:12:41;;;;;;;0.45;0.10;;;23.70;99.90;;;;;;5074478;28;20567;-58
2023/08/03 11:15:15;;;;;;;0.38;0.10;;;24.20;99.90;;;;;;5073954;28;20438;-58
2023/08/03 11:17:42;;;;;;;0.50;0.20;;;24.80;99.90;;;;;;5074769;28;20458;-58
2023/08/03 11:20:12;;;;;;;0.50;0.20;;;24.80;99.90;;;;;;5073582;28;20942;-58
2023/08/03 11:22:38;;;;;;;0.40;0.20;;;24.40;99.90;;;;;;5072609;28;20453;-58
2023/08/03 11:25:07;;;;;;;0.60;0.30;;;24.30;99.90;;;;;;5070253;28;20423;-58
2023/08/03 11:27:35;;;;;;;0.40;0.10;;;24.00;99.90;;;;;;5066312;28;20434;-58
2023/08/03 11:30:03;;;;;;;0.40;0.20;;;24.00;99.90;;;;;;5073895;28;20514;-57
2023/08/03 11:32:32;;;;;;;0.60;0.20;;;23.90;99.90;;;;;;5072523;28;20506;-57
2023/08/03 11:34:59;;;;;;;0.80;0.22;;;23.90;99.90;;;;;;5071006;28;20482;-57
2023/08/03 11:37:30;;;;;;;0.50;0.20;;;24.20;99.90;;;;;;5073196;28;20787;-57
2023/08/03 11:39:57;;;;;;;0.40;0.10;;;24.00;99.90;;;;;;5069731;28;20583;-57
2023/08/03 11:42:24;;;;;;;0.40;0.20;;;24.00;99.90;;;;;;5068253;28;20430;-57
2023/08/03 11:44:52;;;;;;;1.00;0.20;;;24.30;99.90;;;;;;5052468;28;20504;-58
2023/08/03 11:47:19;;;;;;;0.30;0.10;;;24.40;99.90;;;;;;5053041;28;20424;-59
2023/08/03 11:49:48;;;;;;;0.40;0.20;;;24.30;99.90;;;;;;5052106;28;20602;-57
2023/08/03 11:52:19;;;;;;;0.47;0.10;;;24.20;99.90;;;;;;5052480;28;20429;-57
2023/08/03 11:54:46;;;;;;;0.50;0.20;;;24.00;99.90;;;;;;5050057;28;20756;-58
2023/08/03 11:59:59;;;;;;;0.60;0.17;;;24.40;99.90;;;;;;5051950;28;20555;-57
2023/08/03 12:02:37;;;;;;;0.50;0.10;;;24.10;99.90;;;;;;5050574;28;20528;-58
2023/08/03 12:05:07;;;;;;;0.40;0.10;;;23.90;99.90;;;;;;5053349;28;20427;-61
2023/08/03 12:07:34;;;;;;;0.40;0.10;;;23.60;99.90;;;;;;5051339;28;20441;-60
2023/08/03 12:10:01;;;;;;;0.40;0.20;;;23.90;99.90;;;;;;5052586;28;20527;-60
2023/08/03 12:12:27;;;;;;;0.40;0.20;;;24.20;99.90;;;;;;5051719;28;20520;-59
2023/08/03 12:14:59;;;;;;;0.40;0.10;;;24.30;99.90;;;;;;5052244;28;20413;-60
2023/08/03 12:17:26;;;;;;;0.40;0.10;;;24.10;99.90;;;;;;5049987;28;20433;-60
2023/08/03 12:19:54;;;;;;;0.60;0.10;;;24.30;99.90;;;;;;5052048;28;20737;-60
2023/08/03 12:22:20;;;;;;;0.30;0.10;;;24.70;99.90;;;;;;5050477;28;20891;-60
2023/08/03 12:24:47;;;;;;;0.90;0.15;;;24.60;99.90;;;;;;5052496;28;20421;-60
2023/08/03 12:27:14;;;;;;;0.37;0.10;;;24.90;99.90;;;;;;5051635;28;20523;-61
2023/08/03 12:29:43;;;;;;;0.40;0.20;;;25.10;99.90;;;;;;5051989;28;20428;-61
2023/08/03 12:32:12;;;;;;;0.30;0.20;;;24.90;99.90;;;;;;5050256;28;20508;-60
2023/08/03 12:34:38;;;;;;;0.35;0.10;;;24.80;99.90;;;;;;5051202;28;20441;-60
2023/08/03 12:37:07;;;;;;;1.20;0.20;;;24.50;99.90;;;;;;5049651;28;20519;-58
2023/08/03 12:39:34;;;;;;;0.30;0.10;;;25.00;99.90;;;;;;5049002;28;20433;-60
2023/08/03 12:42:01;;;;;;;0.52;0.20;;;25.30;99.90;;;;;;5050576;28;20429;-62
2023/08/03 12:44:28;;;;;;;0.50;0.30;;;25.70;99.90;;;;;;5050696;28;20511;-62
2023/08/03 12:46:55;;;;;;;2.20;1.70;;;25.70;99.90;;;;;;5052905;28;20528;-60
2023/08/03 12:49:23;;;;;;;0.40;0.20;;;25.20;99.90;;;;;;5052028;28;20460;-61
2023/08/03 12:51:50;;;;;;;0.50;0.20;;;25.00;99.90;;;;;;5051585;28;20437;-60
2023/08/03 12:54:17;;;;;;;0.40;0.10;;;25.00;99.90;;;;;;5051880;28;20532;-61